Time;durP1;ratioP1;P1;durP2;ratioP2;P2;SDS_P1;SDS_P2;PMS_P1;PMS_P2;Temp;Humidity;BMP_temperature;BMP_pressure;BME280_temperature;BME280_humidity;BME280_pressure;Samples;Min_cycle;Max_cycle;Signal;HPM_P1;HPM_P2
2023/01/23 00:00:29;;;;;;;32.63;18.58;;;1.90;99.90;;;;;;5059035;28;20063;-58
2023/01/23 00:03:15;;;;;;;30.67;18.58;;;1.90;99.90;;;;;;5072531;28;20428;-54
2023/01/23 00:06:04;;;;;;;28.25;19.60;;;2.00;99.90;;;;;;5070642;28;20032;-56
2023/01/23 00:08:50;;;;;;;28.65;19.52;;;2.00;99.90;;;;;;5070743;28;20036;-54
2023/01/23 00:11:36;;;;;;;30.45;19.52;;;2.00;99.90;;;;;;5072728;28;20458;-59
2023/01/23 00:14:22;;;;;;;31.27;19.95;;;2.00;99.90;;;;;;5056005;28;20079;-57
2023/01/23 00:17:08;;;;;;;30.25;19.52;;;2.00;99.90;;;;;;5056698;28;20029;-58
2023/01/23 00:19:54;;;;;;;31.25;18.85;;;2.00;99.90;;;;;;5088464;28;20086;-53
2023/01/23 00:22:40;;;;;;;29.67;19.45;;;2.00;99.90;;;;;;5083559;28;20078;-56
2023/01/23 00:25:26;;;;;;;31.08;20.23;;;2.00;99.90;;;;;;5073646;28;20021;-57
2023/01/23 00:28:12;;;;;;;31.77;19.70;;;1.90;99.90;;;;;;5073670;28;20039;-56
2023/01/23 00:31:05;;;;;;;28.13;18.42;;;2.00;99.90;;;;;;5071921;28;20470;-55
2023/01/23 00:33:54;;;;;;;30.80;19.40;;;2.00;99.90;;;;;;5075451;28;20062;-57
2023/01/23 00:36:43;;;;;;;29.50;18.83;;;2.10;99.90;;;;;;5069852;28;20029;-55
2023/01/23 00:39:29;;;;;;;29.48;18.20;;;2.00;99.90;;;;;;5066254;28;20493;-57
2023/01/23 00:42:14;;;;;;;27.92;18.55;;;2.00;99.90;;;;;;5073003;28;20102;-53
2023/01/23 00:45:01;;;;;;;30.38;19.85;;;2.00;99.90;;;;;;5072089;28;20025;-50
2023/01/23 00:47:47;;;;;;;29.10;18.98;;;2.00;99.90;;;;;;5056718;28;20481;-51
2023/01/23 00:50:32;;;;;;;32.88;19.02;;;2.10;99.90;;;;;;5071180;28;20646;-57
2023/01/23 00:53:19;;;;;;;28.50;19.48;;;2.00;99.90;;;;;;5072546;28;20028;-50
2023/01/23 00:56:05;;;;;;;30.75;18.02;;;2.00;99.90;;;;;;5074190;28;20028;-57
2023/01/23 00:58:51;;;;;;;27.90;17.77;;;2.00;99.90;;;;;;5071664;28;20059;-53
2023/01/23 01:01:37;;;;;;;30.13;18.60;;;2.00;99.90;;;;;;5071731;28;20074;-53
2023/01/23 01:04:23;;;;;;;29.02;19.17;;;2.00;99.90;;;;;;5070236;28;20025;-55
2023/01/23 01:07:09;;;;;;;28.10;18.13;;;2.10;99.90;;;;;;5068460;28;20052;-55
2023/01/23 01:09:55;;;;;;;28.33;18.63;;;1.90;99.90;;;;;;5070349;28;20044;-52
2023/01/23 01:12:41;;;;;;;28.95;19.48;;;2.00;99.90;;;;;;5057291;28;20028;-53
2023/01/23 01:15:28;;;;;;;29.73;19.02;;;2.00;99.90;;;;;;5071507;28;20036;-57
2023/01/23 01:18:15;;;;;;;28.70;18.90;;;2.00;99.90;;;;;;5070708;28;20043;-53
2023/01/23 01:21:05;;;;;;;28.90;18.50;;;2.00;99.90;;;;;;5072074;28;20055;-55
2023/01/23 01:23:51;;;;;;;27.23;17.85;;;2.00;99.90;;;;;;5071292;28;20047;-50
2023/01/23 01:26:37;;;;;;;27.05;19.30;;;2.00;99.90;;;;;;5070562;28;20043;-55
2023/01/23 01:29:23;;;;;;;27.50;18.33;;;2.00;99.90;;;;;;5070624;28;20035;-55
2023/01/23 01:32:09;;;;;;;27.40;18.05;;;2.00;99.90;;;;;;5072004;28;20099;-53
2023/01/23 01:34:55;;;;;;;29.30;18.50;;;2.00;99.90;;;;;;5071507;28;20572;-55
2023/01/23 01:37:41;;;;;;;27.35;18.92;;;2.00;99.90;;;;;;5069879;28;20650;-54
2023/01/23 01:40:31;;;;;;;27.92;18.90;;;2.10;99.90;;;;;;5074345;28;20249;-50
2023/01/23 01:43:25;;;;;;;29.77;18.55;;;2.10;99.90;;;;;;5071421;28;20032;-53
2023/01/23 01:46:16;;;;;;;28.63;18.00;;;2.10;99.90;;;;;;5062545;28;20036;-54
2023/01/23 01:49:22;;;;;;;30.30;18.30;;;2.20;99.90;;;;;;5069553;28;20067;-53
2023/01/23 01:52:11;;;;;;;27.20;17.73;;;2.20;99.90;;;;;;5071303;28;20472;-53
2023/01/23 01:55:01;;;;;;;28.42;18.17;;;2.10;99.90;;;;;;5075388;28;20040;-51
2023/01/23 01:57:48;;;;;;;28.33;18.75;;;2.10;99.90;;;;;;5071136;28;20032;-53
2023/01/23 02:00:35;;;;;;;29.95;19.17;;;2.10;99.90;;;;;;5070721;28;20019;-53
2023/01/23 02:03:21;;;;;;;28.20;17.88;;;2.00;99.90;;;;;;5070201;28;20036;-55
2023/01/23 02:06:07;;;;;;;30.73;19.27;;;2.00;99.90;;;;;;5054824;28;20520;-58
2023/01/23 02:09:02;;;;;;;30.27;19.90;;;2.00;99.90;;;;;;5070390;28;20025;-56
2023/01/23 02:11:49;;;;;;;27.35;18.17;;;2.00;99.90;;;;;;5070469;28;20048;-54
2023/01/23 02:14:35;;;;;;;28.90;18.60;;;2.00;99.90;;;;;;5069959;28;20032;-55
2023/01/23 02:17:21;;;;;;;28.23;19.00;;;2.10;99.90;;;;;;5044875;28;20024;-54
2023/01/23 02:20:23;;;;;;;28.98;18.55;;;2.10;99.90;;;;;;5068911;28;20025;-54
2023/01/23 02:23:28;;;;;;;29.73;19.35;;;2.10;99.90;;;;;;5070235;28;20032;-50
2023/01/23 02:26:17;;;;;;;28.15;18.30;;;2.10;99.90;;;;;;5069712;28;20013;-48
2023/01/23 02:29:04;;;;;;;27.73;17.92;;;2.10;99.90;;;;;;5068746;28;20436;-52
2023/01/23 02:31:51;;;;;;;29.88;18.70;;;2.20;99.90;;;;;;5069731;28;20542;-49
2023/01/23 02:34:37;;;;;;;30.67;20.40;;;2.20;99.90;;;;;;5069606;28;20111;-51
2023/01/23 02:37:28;;;;;;;30.55;18.67;;;2.20;99.90;;;;;;5070065;28;20034;-51
2023/01/23 02:40:14;;;;;;;27.02;18.65;;;2.20;99.90;;;;;;5070961;28;20063;-53
2023/01/23 02:43:03;;;;;;;31.38;18.98;;;2.20;99.90;;;;;;5057249;28;20025;-52
2023/01/23 02:45:49;;;;;;;31.20;19.92;;;2.20;99.90;;;;;;5050411;28;20556;-56
2023/01/23 02:48:38;;;;;;;27.83;18.10;;;2.20;99.90;;;;;;5067618;28;20033;-49
2023/01/23 02:51:24;;;;;;;29.27;18.88;;;2.30;99.90;;;;;;5069585;28;20060;-50
2023/01/23 02:54:10;;;;;;;30.75;20.90;;;2.20;99.90;;;;;;5069601;28;20504;-48
2023/01/23 02:56:57;;;;;;;30.83;20.30;;;2.20;99.90;;;;;;5068348;28;20040;-49
2023/01/23 03:02:50;;;;;;;32.83;20.27;;;2.20;99.90;;;;;;5070751;28;20020;-54
2023/01/23 03:05:37;;;;;;;31.02;19.38;;;2.10;99.90;;;;;;5068845;28;20028;-50
2023/01/23 03:08:32;;;;;;;33.58;21.27;;;2.20;99.90;;;;;;5068186;28;20033;-47
2023/01/23 03:11:18;;;;;;;30.10;19.37;;;2.20;99.90;;;;;;5069595;28;20036;-54
2023/01/23 03:14:07;;;;;;;31.25;19.45;;;2.20;99.90;;;;;;5069349;28;20024;-58
2023/01/23 03:16:54;;;;;;;34.10;20.52;;;2.20;99.90;;;;;;5050535;28;20116;-52
2023/01/23 03:19:39;;;;;;;33.60;19.42;;;2.30;99.90;;;;;;5050720;28;20532;-55
2023/01/23 03:22:25;;;;;;;31.88;20.13;;;2.20;99.90;;;;;;5051564;28;20021;-54
2023/01/23 03:25:11;;;;;;;32.63;19.77;;;2.20;99.90;;;;;;5069029;28;20025;-53
2023/01/23 03:27:57;;;;;;;36.70;20.58;;;2.20;99.90;;;;;;5069856;28;20040;-53
2023/01/23 03:30:43;;;;;;;30.23;19.52;;;2.20;99.90;;;;;;5072970;28;20408;-56
2023/01/23 03:33:29;;;;;;;33.35;19.92;;;2.20;99.90;;;;;;5072780;28;20033;-54
2023/01/23 03:36:15;;;;;;;36.55;20.63;;;2.20;99.90;;;;;;5072566;28;20028;-53
2023/01/23 03:42:07;;;;;;;37.05;21.88;;;2.20;99.90;;;;;;5057195;28;20024;-54
2023/01/23 03:44:53;;;;;;;37.53;21.75;;;2.20;99.90;;;;;;5071829;28;20109;-52
2023/01/23 03:47:39;;;;;;;38.15;22.20;;;2.20;99.90;;;;;;5071737;28;20060;-53
2023/01/23 03:50:25;;;;;;;38.42;20.77;;;2.10;99.90;;;;;;5072267;28;20021;-51
2023/01/23 03:53:10;;;;;;;36.33;21.77;;;2.20;99.90;;;;;;5072900;28;20082;-54
2023/01/23 03:55:56;;;;;;;41.00;23.00;;;2.20;99.90;;;;;;5072311;28;20054;-54
2023/01/23 03:58:42;;;;;;;39.22;21.98;;;2.20;99.90;;;;;;5071949;28;20041;-57
2023/01/23 04:01:28;;;;;;;42.17;22.92;;;2.10;99.90;;;;;;5072150;28;20056;-54
2023/01/23 04:04:14;;;;;;;36.80;22.17;;;2.10;99.90;;;;;;5073241;28;20020;-54
2023/01/23 04:07:01;;;;;;;39.33;22.65;;;2.10;99.90;;;;;;5067415;28;20090;-55
2023/01/23 04:09:47;;;;;;;43.42;22.83;;;2.10;99.90;;;;;;5054492;28;20021;-54
2023/01/23 04:12:33;;;;;;;44.53;22.80;;;2.10;99.90;;;;;;5053307;28;20033;-54
2023/01/23 04:15:19;;;;;;;42.35;23.23;;;2.10;99.90;;;;;;5057885;28;20085;-55
2023/01/23 04:18:05;;;;;;;43.55;23.13;;;2.10;99.90;;;;;;5071916;28;20036;-53
2023/01/23 04:20:51;;;;;;;39.83;21.17;;;2.10;99.90;;;;;;5068343;28;20078;-55
2023/01/23 04:23:37;;;;;;;42.50;22.88;;;2.10;99.90;;;;;;5063151;28;20696;-53
2023/01/23 04:26:23;;;;;;;40.97;22.45;;;2.10;99.90;;;;;;5071898;28;20512;-51
2023/01/23 04:29:09;;;;;;;40.08;22.58;;;2.20;99.90;;;;;;5072825;28;20472;-50
2023/01/23 04:31:55;;;;;;;41.83;22.40;;;2.10;99.90;;;;;;5071885;28;20086;-56
2023/01/23 04:34:41;;;;;;;39.15;23.25;;;2.20;99.90;;;;;;5071239;28;20033;-53
2023/01/23 04:37:27;;;;;;;39.10;22.63;;;2.10;99.90;;;;;;5071302;28;20427;-54
2023/01/23 04:40:13;;;;;;;39.05;22.10;;;2.20;99.90;;;;;;5071013;28;20127;-54
2023/01/23 04:42:59;;;;;;;40.08;22.52;;;2.20;99.90;;;;;;5058030;28;20051;-54
2023/01/23 04:45:48;;;;;;;38.05;21.17;;;2.20;99.90;;;;;;5054684;28;20501;-54
2023/01/23 04:48:34;;;;;;;34.38;20.55;;;2.30;99.90;;;;;;5072790;28;20035;-55
2023/01/23 04:51:21;;;;;;;36.80;21.67;;;2.20;99.90;;;;;;5072432;28;20060;-52
2023/01/23 04:54:07;;;;;;;37.45;22.15;;;2.30;99.90;;;;;;5071793;28;20505;-54
2023/01/23 04:56:53;;;;;;;36.22;21.33;;;2.20;99.90;;;;;;5071634;28;20032;-56
2023/01/23 04:59:39;;;;;;;35.47;21.50;;;2.20;99.90;;;;;;5071032;28;20550;-52
2023/01/23 05:02:24;;;;;;;37.80;22.42;;;2.30;99.90;;;;;;5052832;28;20130;-54
2023/01/23 05:05:11;;;;;;;36.55;22.88;;;2.30;99.90;;;;;;5071345;28;20532;-52
2023/01/23 05:07:57;;;;;;;35.05;21.73;;;2.30;99.90;;;;;;5071309;28;20053;-53
2023/01/23 05:10:43;;;;;;;38.28;21.75;;;2.40;99.90;;;;;;5071764;28;20465;-54
2023/01/23 05:13:29;;;;;;;36.20;22.08;;;2.40;99.90;;;;;;5072103;28;20090;-55
2023/01/23 05:16:15;;;;;;;34.13;21.17;;;2.40;99.90;;;;;;5070981;28;20099;-51
2023/01/23 05:19:01;;;;;;;38.22;22.92;;;2.30;99.90;;;;;;5070796;28;20031;-53
2023/01/23 05:21:47;;;;;;;34.75;22.38;;;2.30;99.90;;;;;;5071664;28;20405;-51
2023/01/23 05:24:33;;;;;;;35.83;22.92;;;2.30;99.90;;;;;;5071081;28;20107;-53
2023/01/23 05:27:19;;;;;;;37.50;23.40;;;2.30;99.90;;;;;;5058875;28;20093;-54
2023/01/23 05:30:06;;;;;;;40.55;23.00;;;2.30;99.90;;;;;;5070288;28;20033;-54
2023/01/23 05:32:52;;;;;;;38.15;24.10;;;2.30;99.90;;;;;;5071610;28;20029;-52
2023/01/23 05:35:39;;;;;;;43.90;24.52;;;2.30;99.90;;;;;;5070501;28;20032;-54
2023/01/23 05:38:25;;;;;;;38.88;23.15;;;2.30;99.90;;;;;;5069322;28;20036;-52
2023/01/23 05:41:10;;;;;;;40.67;22.92;;;2.30;99.90;;;;;;5071111;28;20021;-50
2023/01/23 05:43:56;;;;;;;41.58;24.77;;;2.30;99.90;;;;;;5070940;28;20031;-50
2023/01/23 05:46:42;;;;;;;39.97;23.83;;;2.30;99.90;;;;;;5071327;28;20037;-53
2023/01/23 05:49:28;;;;;;;41.30;23.20;;;2.20;99.90;;;;;;5056749;28;20029;-54
2023/01/23 05:52:14;;;;;;;44.17;24.08;;;2.30;99.90;;;;;;5071971;28;20035;-51
2023/01/23 05:55:00;;;;;;;43.78;24.08;;;2.30;99.90;;;;;;5070020;28;20036;-53
2023/01/23 05:57:46;;;;;;;42.08;22.90;;;2.30;99.90;;;;;;5070169;28;20062;-51
2023/01/23 06:00:32;;;;;;;41.30;23.52;;;2.30;99.90;;;;;;5069215;28;20063;-51
2023/01/23 06:03:18;;;;;;;44.70;24.40;;;2.30;99.90;;;;;;5069586;28;20028;-52
2023/01/23 06:06:05;;;;;;;45.97;24.23;;;2.20;99.90;;;;;;5068730;28;20028;-53
2023/01/23 06:08:50;;;;;;;42.47;23.58;;;2.20;99.90;;;;;;5055564;28;20066;-54
2023/01/23 06:11:37;;;;;;;44.30;24.50;;;2.20;99.90;;;;;;5068168;28;20107;-54
2023/01/23 06:14:23;;;;;;;41.20;23.38;;;2.20;99.90;;;;;;5071706;28;20107;-54
2023/01/23 06:17:11;;;;;;;43.10;24.35;;;2.20;99.90;;;;;;5055569;28;20577;-51
2023/01/23 06:19:57;;;;;;;47.28;25.48;;;2.20;99.90;;;;;;5069695;28;20032;-55
2023/01/23 06:22:43;;;;;;;41.08;23.95;;;2.30;99.90;;;;;;5068778;28;20017;-54
2023/01/23 06:25:29;;;;;;;49.05;25.70;;;2.30;99.90;;;;;;5069238;28;20054;-52
2023/01/23 06:28:15;;;;;;;46.72;25.70;;;2.30;99.90;;;;;;5069429;28;20055;-54
2023/01/23 06:31:02;;;;;;;47.25;26.02;;;2.30;99.90;;;;;;5069321;28;20047;-55
2023/01/23 06:33:50;;;;;;;46.60;26.45;;;2.30;99.90;;;;;;5070644;28;20070;-50
2023/01/23 06:36:36;;;;;;;48.28;26.52;;;2.30;99.90;;;;;;5068616;28;20123;-51
2023/01/23 06:39:22;;;;;;;46.38;25.88;;;2.30;99.90;;;;;;5069812;28;20032;-55
2023/01/23 06:42:09;;;;;;;51.20;25.92;;;2.30;99.90;;;;;;5075176;28;20032;-52
2023/01/23 06:44:55;;;;;;;51.17;26.83;;;2.20;99.90;;;;;;5054216;28;20648;-50
2023/01/23 06:47:40;;;;;;;47.03;25.27;;;2.30;99.90;;;;;;5059140;28;20116;-52
2023/01/23 06:50:26;;;;;;;53.88;26.88;;;2.30;99.90;;;;;;5069113;28;20028;-52
2023/01/23 06:53:17;;;;;;;54.78;27.60;;;2.30;99.90;;;;;;5068941;28;20029;-53
2023/01/23 06:56:05;;;;;;;51.53;27.05;;;2.20;99.90;;;;;;5069814;28;20046;-48
2023/01/23 06:58:51;;;;;;;51.03;26.52;;;2.20;99.90;;;;;;5067112;28;20045;-54
2023/01/23 07:01:41;;;;;;;50.17;24.67;;;2.30;99.90;;;;;;5068834;28;20150;-48
2023/01/23 07:04:27;;;;;;;49.03;24.65;;;2.20;99.90;;;;;;5060657;28;20024;-52
2023/01/23 07:07:13;;;;;;;51.00;27.77;;;2.30;99.90;;;;;;5050571;28;20044;-52
2023/01/23 07:09:59;;;;;;;49.63;25.45;;;2.40;99.90;;;;;;5066794;28;20036;-49
2023/01/23 07:12:45;;;;;;;47.97;26.42;;;2.30;99.90;;;;;;5069614;28;20032;-51
2023/01/23 07:15:31;;;;;;;50.45;24.77;;;2.40;99.90;;;;;;5049560;28;20029;-51
2023/01/23 07:18:17;;;;;;;43.88;24.67;;;2.40;99.90;;;;;;5051715;28;20584;-48
2023/01/23 07:21:05;;;;;;;49.78;25.08;;;2.30;99.90;;;;;;5070176;28;20056;-50
2023/01/23 07:23:51;;;;;;;50.33;25.52;;;2.30;99.90;;;;;;5070137;28;20024;-53
2023/01/23 07:26:37;;;;;;;45.90;25.45;;;2.30;99.90;;;;;;5078034;28;20032;-57
2023/01/23 07:29:23;;;;;;;44.72;23.80;;;2.40;99.90;;;;;;5071081;28;20028;-55
2023/01/23 07:32:09;;;;;;;45.88;24.48;;;2.40;99.90;;;;;;5070828;28;20028;-52
2023/01/23 07:34:55;;;;;;;42.97;23.90;;;2.30;99.90;;;;;;5071444;28;20089;-56
2023/01/23 07:37:41;;;;;;;45.95;23.65;;;2.20;99.90;;;;;;5070055;28;20419;-49
2023/01/23 07:40:27;;;;;;;48.60;25.95;;;2.30;99.90;;;;;;5070389;28;20489;-56
2023/01/23 07:43:13;;;;;;;42.10;22.90;;;2.30;99.90;;;;;;5069472;28;20032;-52
2023/01/23 07:45:59;;;;;;;40.58;23.35;;;2.30;99.90;;;;;;5075563;28;20028;-56
2023/01/23 07:48:45;;;;;;;40.60;23.27;;;2.30;99.90;;;;;;5054139;28;20036;-52
2023/01/23 07:51:31;;;;;;;43.35;22.63;;;2.30;99.90;;;;;;5070142;28;20066;-53
2023/01/23 07:54:17;;;;;;;40.47;23.88;;;2.40;99.90;;;;;;5059020;28;20037;-55
2023/01/23 07:57:03;;;;;;;39.25;21.92;;;2.50;99.90;;;;;;5068046;28;20068;-51
2023/01/23 07:59:49;;;;;;;40.22;22.48;;;2.50;99.90;;;;;;5067933;28;20571;-54
2023/01/23 08:02:36;;;;;;;40.65;22.98;;;2.50;99.90;;;;;;5054974;28;20029;-52
2023/01/23 08:05:22;;;;;;;37.10;20.90;;;2.50;99.90;;;;;;5068996;28;20032;-52
2023/01/23 08:08:08;;;;;;;38.42;23.25;;;2.50;99.90;;;;;;5068981;28;20033;-53
2023/01/23 08:10:54;;;;;;;40.10;24.50;;;2.60;99.90;;;;;;5069540;28;20029;-57
2023/01/23 08:13:40;;;;;;;37.20;21.77;;;2.60;99.90;;;;;;5055820;28;20107;-52
2023/01/23 08:16:26;;;;;;;39.30;22.35;;;2.50;99.90;;;;;;5070446;28;20024;-55
2023/01/23 08:19:12;;;;;;;44.05;24.58;;;2.60;99.90;;;;;;5072740;28;20025;-55
2023/01/23 08:21:58;;;;;;;37.30;22.88;;;2.60;99.90;;;;;;5073058;28;20107;-54
2023/01/23 08:24:44;;;;;;;44.08;24.17;;;2.70;99.90;;;;;;5071294;28;20070;-53
2023/01/23 08:27:30;;;;;;;37.65;21.55;;;2.70;99.90;;;;;;5072391;28;20063;-53
2023/01/23 08:30:16;;;;;;;37.35;22.55;;;2.60;99.90;;;;;;5079616;28;20029;-55
2023/01/23 08:33:03;;;;;;;39.65;23.15;;;2.60;99.90;;;;;;5073078;28;20493;-56
2023/01/23 08:35:53;;;;;;;37.50;22.63;;;2.70;99.90;;;;;;5057084;28;20024;-51
2023/01/23 08:38:39;;;;;;;40.25;23.80;;;2.70;99.90;;;;;;5072034;28;20048;-56
2023/01/23 08:41:25;;;;;;;38.90;23.20;;;2.70;99.90;;;;;;5072891;28;20019;-50
2023/01/23 08:44:12;;;;;;;37.25;21.15;;;2.70;99.90;;;;;;5073020;28;20025;-55
2023/01/23 08:46:59;;;;;;;37.50;23.35;;;2.70;99.90;;;;;;5069501;28;20035;-57
2023/01/23 08:49:45;;;;;;;37.15;21.92;;;2.70;99.90;;;;;;5070976;28;20080;-55
2023/01/23 08:52:33;;;;;;;42.03;23.10;;;2.70;99.90;;;;;;5069161;28;20036;-56
2023/01/23 08:55:19;;;;;;;42.65;24.05;;;2.70;99.90;;;;;;5051446;28;20063;-56
2023/01/23 08:58:06;;;;;;;42.00;24.55;;;2.70;99.90;;;;;;5070619;28;20032;-51
2023/01/23 09:00:52;;;;;;;40.00;23.48;;;2.80;99.90;;;;;;5072270;28;20032;-52
2023/01/23 09:03:38;;;;;;;44.53;24.95;;;2.80;99.90;;;;;;5072533;28;20028;-48
2023/01/23 09:06:24;;;;;;;41.83;24.38;;;2.80;99.90;;;;;;5071800;28;20035;-51
2023/01/23 09:09:10;;;;;;;43.88;24.60;;;2.80;99.90;;;;;;5072569;28;20025;-53
2023/01/23 09:11:56;;;;;;;39.90;23.58;;;2.90;99.90;;;;;;5072326;28;20549;-54
2023/01/23 09:14:42;;;;;;;41.00;24.73;;;2.90;99.90;;;;;;5071824;28;20461;-60
2023/01/23 09:17:28;;;;;;;45.28;23.42;;;2.90;99.90;;;;;;5074362;28;20036;-52
2023/01/23 09:20:14;;;;;;;39.55;22.65;;;2.90;99.90;;;;;;5071707;28;20052;-50
2023/01/23 09:23:00;;;;;;;44.22;26.88;;;2.90;99.90;;;;;;5071684;28;20077;-51
2023/01/23 09:25:46;;;;;;;43.30;24.20;;;2.90;99.90;;;;;;5057839;28;20032;-52
2023/01/23 09:28:33;;;;;;;44.70;23.83;;;2.90;99.90;;;;;;5064704;28;20028;-50
2023/01/23 09:31:19;;;;;;;41.08;24.08;;;2.90;99.90;;;;;;5071141;28;20032;-49
2023/01/23 09:34:06;;;;;;;44.72;24.23;;;3.00;99.90;;;;;;5071335;28;20107;-49
2023/01/23 09:36:52;;;;;;;41.05;24.25;;;2.90;99.90;;;;;;5070255;28;20028;-53
2023/01/23 09:39:38;;;;;;;46.30;24.08;;;2.90;99.90;;;;;;5071288;28;20051;-55
2023/01/23 09:42:33;;;;;;;44.03;24.27;;;2.80;99.90;;;;;;5070982;28;20028;-51
2023/01/23 09:45:23;;;;;;;45.97;26.30;;;2.90;99.90;;;;;;5070677;28;20063;-53
2023/01/23 09:48:35;;;;;;;47.00;24.13;;;2.90;99.90;;;;;;5070355;28;20029;-52
2023/01/23 09:51:42;;;;;;;48.80;26.60;;;3.00;99.90;;;;;;5068995;28;20103;-55
2023/01/23 09:54:45;;;;;;;42.35;24.02;;;2.90;99.90;;;;;;5070790;28;20439;-50
2023/01/23 09:57:41;;;;;;;44.03;25.15;;;2.80;99.90;;;;;;5074114;28;20024;-59
2023/01/23 10:00:32;;;;;;;48.05;24.40;;;2.80;99.90;;;;;;5075761;28;20024;-57
2023/01/23 10:03:19;;;;;;;49.45;26.23;;;2.80;99.90;;;;;;5060224;28;20028;-51
2023/01/23 10:06:11;;;;;;;45.67;24.85;;;2.80;99.90;;;;;;5074516;28;20021;-55
2023/01/23 10:09:03;;;;;;;46.15;26.23;;;2.80;99.90;;;;;;5068989;28;20067;-54
2023/01/23 10:11:52;;;;;;;48.38;26.38;;;2.70;99.90;;;;;;5069224;28;20058;-52
2023/01/23 10:15:09;;;;;;;49.30;27.42;;;2.70;99.90;;;;;;5068719;28;20027;-52
2023/01/23 10:18:07;;;;;;;46.97;26.33;;;2.70;99.90;;;;;;5068960;28;20021;-49
2023/01/23 10:21:08;;;;;;;47.20;24.83;;;2.70;99.90;;;;;;5071878;28;20024;-53
2023/01/23 10:24:32;;;;;;;49.10;26.08;;;2.70;99.90;;;;;;5067454;28;20017;-55
2023/01/23 10:27:31;;;;;;;51.33;25.73;;;2.70;99.90;;;;;;4986376;28;20411;-52
2023/01/23 10:30:28;;;;;;;49.92;28.25;;;2.80;99.90;;;;;;5070403;28;20029;-53
2023/01/23 10:33:16;;;;;;;53.83;29.73;;;2.80;99.90;;;;;;5068368;28;20028;-59
2023/01/23 10:36:14;;;;;;;48.75;26.52;;;2.90;99.90;;;;;;5069478;28;20028;-52
2023/01/23 10:39:05;;;;;;;51.83;27.67;;;3.10;99.90;;;;;;5057593;28;20028;-57
2023/01/23 10:41:51;;;;;;;49.78;28.05;;;3.00;99.90;;;;;;5068406;28;20473;-55
2023/01/23 10:44:37;;;;;;;52.60;29.70;;;2.90;99.90;;;;;;5070763;28;20029;-55
2023/01/23 10:47:40;;;;;;;44.55;25.38;;;2.90;99.90;;;;;;5069705;28;20074;-55
2023/01/23 10:50:35;;;;;;;51.88;27.35;;;2.90;99.90;;;;;;5065572;28;20152;-55
2023/01/23 10:53:23;;;;;;;49.20;27.65;;;2.90;99.90;;;;;;5070094;28;20028;-56
2023/01/23 10:56:15;;;;;;;50.55;27.77;;;2.90;99.90;;;;;;5065186;28;20072;-50
2023/01/23 10:59:04;;;;;;;46.70;25.73;;;3.00;99.90;;;;;;5070336;28;20102;-56
2023/01/23 11:02:00;;;;;;;49.45;27.33;;;2.90;99.90;;;;;;5067536;28;20504;-52
2023/01/23 11:04:50;;;;;;;48.90;26.02;;;2.90;99.90;;;;;;5070199;28;20021;-53
2023/01/23 11:07:37;;;;;;;48.78;26.40;;;2.90;99.90;;;;;;5070964;28;20032;-55
2023/01/23 11:10:23;;;;;;;50.40;27.63;;;3.00;99.90;;;;;;5071540;28;20029;-55
2023/01/23 11:13:25;;;;;;;54.72;27.70;;;2.90;99.90;;;;;;5068913;28;20027;-57
2023/01/23 11:16:20;;;;;;;49.65;27.35;;;2.90;99.90;;;;;;5066827;28;20023;-59
2023/01/23 11:19:06;;;;;;;51.55;26.90;;;2.90;99.90;;;;;;5068628;28;20131;-50
2023/01/23 11:21:56;;;;;;;47.55;27.00;;;2.90;99.90;;;;;;5072133;28;20024;-52
2023/01/23 11:24:42;;;;;;;50.95;27.98;;;2.90;99.90;;;;;;5069239;28;20036;-54
2023/01/23 11:27:29;;;;;;;49.08;25.85;;;3.00;99.90;;;;;;5067488;28;20813;-53
2023/01/23 11:30:31;;;;;;;50.15;28.58;;;2.90;99.90;;;;;;5067695;28;20078;-50
2023/01/23 11:33:51;;;;;;;53.47;28.55;;;2.90;99.90;;;;;;5055226;28;20135;-54
2023/01/23 11:36:42;;;;;;;52.03;29.90;;;2.90;99.90;;;;;;5067834;28;20048;-55
2023/01/23 11:39:46;;;;;;;54.28;29.17;;;2.90;99.90;;;;;;5069189;28;20102;-56
2023/01/23 11:42:34;;;;;;;52.13;27.88;;;2.90;99.90;;;;;;5068905;28;20017;-55
2023/01/23 11:45:48;;;;;;;57.47;32.10;;;3.00;99.90;;;;;;5069503;28;20067;-51
2023/01/23 11:48:45;;;;;;;50.53;28.27;;;3.10;99.90;;;;;;5070535;28;20043;-51
2023/01/23 11:51:54;;;;;;;51.60;28.83;;;3.20;99.90;;;;;;5074216;28;20034;-51
2023/01/23 11:55:18;;;;;;;52.97;29.45;;;3.10;99.90;;;;;;5058171;28;20024;-52
2023/01/23 11:58:23;;;;;;;50.45;28.50;;;3.00;99.90;;;;;;5073456;28;20032;-51
2023/01/23 12:01:17;;;;;;;52.47;29.20;;;3.00;99.90;;;;;;5060088;28;20027;-51
2023/01/23 12:04:46;;;;;;;52.00;30.98;;;3.00;99.90;;;;;;5075430;28;20025;-56
2023/01/23 12:07:52;;;;;;;53.80;30.40;;;3.00;99.90;;;;;;4972079;28;20391;-53
2023/01/23 12:11:03;;;;;;;53.80;30.98;;;3.00;99.90;;;;;;5072706;28;20051;-51
2023/01/23 12:13:58;;;;;;;51.45;29.75;;;3.00;99.90;;;;;;5072846;28;20017;-51
2023/01/23 12:17:09;;;;;;;55.28;29.73;;;3.10;99.90;;;;;;5071252;28;20035;-55
2023/01/23 12:20:14;;;;;;;52.95;31.33;;;3.10;99.90;;;;;;5072144;28;20408;-55
2023/01/23 12:23:32;;;;;;;52.33;30.63;;;3.10;99.90;;;;;;5072184;28;20017;-53
2023/01/23 12:26:23;;;;;;;52.78;29.55;;;3.10;99.90;;;;;;4996496;28;20035;-52
2023/01/23 12:29:38;;;;;;;53.72;29.83;;;3.10;99.90;;;;;;5057544;28;20547;-53
2023/01/23 12:32:55;;;;;;;57.50;32.15;;;3.10;99.90;;;;;;5048874;28;20527;-52
2023/01/23 12:35:57;;;;;;;54.70;29.45;;;3.10;99.90;;;;;;5071857;28;20099;-52
2023/01/23 12:38:49;;;;;;;61.20;32.92;;;3.10;99.90;;;;;;5074662;28;20400;-52
2023/01/23 12:41:49;;;;;;;58.00;31.90;;;3.00;99.90;;;;;;5079934;28;20019;-51
2023/01/23 12:44:43;;;;;;;56.45;31.85;;;3.10;99.90;;;;;;5080435;28;20055;-48
2023/01/23 12:48:00;;;;;;;53.10;30.52;;;3.00;99.90;;;;;;5079078;28;20027;-51
2023/01/23 12:51:05;;;;;;;50.55;29.17;;;3.00;99.90;;;;;;5063753;28;20062;-53
2023/01/23 12:53:55;;;;;;;56.92;30.23;;;3.10;99.90;;;;;;5077927;28;20028;-53
2023/01/23 12:56:43;;;;;;;57.15;31.05;;;3.10;99.90;;;;;;5061923;28;20041;-54
2023/01/23 12:59:46;;;;;;;67.88;32.63;;;3.00;99.90;;;;;;5073082;28;20104;-54
2023/01/23 13:02:43;;;;;;;57.35;30.45;;;3.00;99.90;;;;;;5072601;28;20032;-54
2023/01/23 13:05:38;;;;;;;57.03;30.23;;;3.00;99.90;;;;;;5073903;28;20020;-54
2023/01/23 13:08:38;;;;;;;57.43;32.37;;;3.10;99.90;;;;;;5075252;28;20078;-55
2023/01/23 13:11:45;;;;;;;57.05;31.80;;;3.10;99.90;;;;;;5057329;28;20021;-55
2023/01/23 13:14:31;;;;;;;59.55;31.77;;;3.10;99.90;;;;;;5073710;28;20164;-53
2023/01/23 13:17:46;;;;;;;60.00;33.33;;;3.10;99.90;;;;;;5071802;28;20074;-50
2023/01/23 13:23:39;;;;;;;60.90;33.58;;;3.10;99.90;;;;;;5072912;28;20492;-50
2023/01/23 13:26:27;;;;;;;58.67;31.83;;;3.10;99.90;;;;;;5072170;28;20032;-48
2023/01/23 13:29:48;;;;;;;62.20;32.75;;;3.10;99.90;;;;;;5071961;28;20516;-51
2023/01/23 13:32:34;;;;;;;57.28;31.90;;;3.20;99.90;;;;;;5071683;28;20025;-55
2023/01/23 13:35:39;;;;;;;59.20;33.70;;;3.20;99.90;;;;;;5071204;28;20193;-54
2023/01/23 13:38:37;;;;;;;60.03;32.33;;;3.20;99.90;;;;;;5073108;28;20016;-56
2023/01/23 13:41:28;;;;;;;63.13;34.42;;;3.20;99.90;;;;;;5071503;28;20013;-49
2023/01/23 13:44:19;;;;;;;63.85;34.00;;;3.10;99.90;;;;;;5071222;28;20052;-52
2023/01/23 13:50:32;;;;;;;70.97;35.58;;;3.10;99.90;;;;;;5072429;28;20020;-53
2023/01/23 13:56:38;;;;;;;59.30;31.95;;;3.10;99.90;;;;;;5072955;28;20606;-54
2023/01/23 13:59:27;;;;;;;72.45;35.85;;;3.10;99.90;;;;;;5058757;28;20032;-55
2023/01/23 14:05:34;;;;;;;66.07;33.72;;;3.10;99.90;;;;;;5072204;28;20516;-50
2023/01/23 14:08:23;;;;;;;65.43;33.88;;;3.10;99.90;;;;;;5072615;28;20055;-60
2023/01/23 14:11:17;;;;;;;68.38;34.72;;;3.10;99.90;;;;;;5074254;28;20070;-56
2023/01/23 14:17:11;;;;;;;63.97;33.13;;;3.10;99.90;;;;;;5060782;28;20028;-59
2023/01/23 14:20:00;;;;;;;58.45;31.48;;;3.10;99.90;;;;;;5055773;28;20033;-51
2023/01/23 14:22:46;;;;;;;64.03;33.20;;;3.10;99.90;;;;;;5070756;28;20512;-49
2023/01/23 14:25:33;;;;;;;57.72;31.35;;;3.10;99.90;;;;;;5074758;28;20055;-56
2023/01/23 14:28:19;;;;;;;59.30;31.40;;;3.10;99.90;;;;;;5072549;28;20538;-57
2023/01/23 14:31:06;;;;;;;57.38;31.60;;;3.20;99.90;;;;;;5073031;28;20031;-55
2023/01/23 14:34:00;;;;;;;61.22;33.80;;;3.20;99.90;;;;;;5072060;28;20020;-57
2023/01/23 14:36:50;;;;;;;57.15;31.92;;;3.20;99.90;;;;;;5073245;28;20401;-58
2023/01/23 14:39:37;;;;;;;56.75;32.45;;;3.20;99.90;;;;;;5070456;28;20025;-56
2023/01/23 14:42:29;;;;;;;61.35;32.85;;;3.20;99.90;;;;;;5055344;28;20028;-51
2023/01/23 14:45:15;;;;;;;62.20;32.10;;;3.20;99.90;;;;;;5071399;28;20021;-52
2023/01/23 14:48:03;;;;;;;66.35;34.15;;;3.30;99.90;;;;;;5071026;28;20020;-54
2023/01/23 14:50:49;;;;;;;66.82;33.97;;;3.30;99.90;;;;;;5056190;28;20029;-56
2023/01/23 14:53:39;;;;;;;66.13;34.65;;;3.30;99.90;;;;;;5070871;28;20029;-55